Time;durP1;ratioP1;P1;durP2;ratioP2;P2;SDS_P1;SDS_P2;PMS_P1;PMS_P2;Temp;Humidity;BMP_temperature;BMP_pressure;BME280_temperature;BME280_humidity;BME280_pressure;Samples;Min_cycle;Max_cycle;Signal;HPM_P1;HPM_P2
2021/11/26 00:00:06;;;;;;;49.53;37.30;;;3.10;99.90;;;;;;4878313;29;20453;-73
2021/11/26 00:02:32;;;;;;;59.17;39.37;;;3.20;99.90;;;;;;4878577;29;20469;-73
2021/11/26 00:05:00;;;;;;;56.30;39.93;;;3.20;99.90;;;;;;4878399;29;20451;-73
2021/11/26 00:07:27;;;;;;;55.40;40.10;;;3.20;99.90;;;;;;4878482;29;20553;-72
2021/11/26 00:09:54;;;;;;;50.23;38.17;;;3.20;99.90;;;;;;4878916;29;20474;-73
2021/11/26 00:12:21;;;;;;;52.70;35.87;;;3.20;99.90;;;;;;4878683;29;20873;-72
2021/11/26 00:14:53;;;;;;;50.43;38.70;;;3.30;99.90;;;;;;4878404;29;20458;-74
2021/11/26 00:17:20;;;;;;;52.87;37.57;;;3.20;99.90;;;;;;4878425;29;20858;-74
2021/11/26 00:19:48;;;;;;;54.60;39.70;;;3.20;99.90;;;;;;4878183;29;20656;-74
2021/11/26 00:22:15;;;;;;;57.03;40.43;;;3.10;99.90;;;;;;4878304;29;20936;-73
2021/11/26 00:24:42;;;;;;;51.60;37.77;;;3.10;99.90;;;;;;4878320;29;20455;-73
2021/11/26 00:27:09;;;;;;;49.17;38.17;;;3.10;99.90;;;;;;4878197;29;20973;-73
2021/11/26 00:29:36;;;;;;;57.50;42.10;;;3.20;99.90;;;;;;4878182;29;20448;-73
2021/11/26 00:32:05;;;;;;;58.13;41.70;;;3.10;99.90;;;;;;4877742;29;20506;-73
2021/11/26 00:34:32;;;;;;;56.30;40.57;;;3.10;99.90;;;;;;4878013;29;20465;-73
2021/11/26 00:36:58;;;;;;;56.03;39.60;;;3.00;99.90;;;;;;4877913;29;20496;-74
2021/11/26 00:39:25;;;;;;;53.97;39.07;;;3.10;99.90;;;;;;4878120;29;20457;-73
2021/11/26 00:41:52;;;;;;;55.00;37.20;;;3.20;99.90;;;;;;4878166;29;20470;-73
2021/11/26 00:44:19;;;;;;;54.47;41.43;;;3.10;99.90;;;;;;4877970;29;20467;-72
2021/11/26 00:46:45;;;;;;;53.63;39.30;;;3.10;99.90;;;;;;4877964;29;20665;-73
2021/11/26 00:49:14;;;;;;;52.00;39.03;;;3.10;99.90;;;;;;4877738;29;21001;-73
2021/11/26 00:51:41;;;;;;;56.20;39.97;;;3.10;99.90;;;;;;4877832;29;20466;-73
2021/11/26 00:54:07;;;;;;;50.37;37.00;;;3.20;99.90;;;;;;4877747;29;20456;-73
2021/11/26 00:56:34;;;;;;;61.17;39.30;;;3.10;99.90;;;;;;4877629;29;20498;-73
2021/11/26 00:59:01;;;;;;;61.70;41.83;;;3.10;99.90;;;;;;4876746;29;21043;-70
2021/11/26 01:01:28;;;;;;;50.20;39.00;;;3.10;99.90;;;;;;4877519;29;20845;-71
2021/11/26 01:03:55;;;;;;;48.53;37.20;;;3.20;99.90;;;;;;4877751;29;20479;-72
2021/11/26 01:06:23;;;;;;;52.87;38.10;;;3.20;99.90;;;;;;4877713;29;20507;-72
2021/11/26 01:08:50;;;;;;;52.20;38.23;;;3.10;99.90;;;;;;4877598;29;20500;-71
2021/11/26 01:11:17;;;;;;;54.60;38.87;;;3.20;99.90;;;;;;4877528;29;20471;-73
2021/11/26 01:13:44;;;;;;;53.77;37.50;;;3.30;99.90;;;;;;4877626;29;20459;-73
2021/11/26 01:16:11;;;;;;;58.83;41.20;;;3.30;99.90;;;;;;4877314;29;20463;-72
2021/11/26 01:18:38;;;;;;;51.73;37.97;;;3.20;99.90;;;;;;4877318;29;20460;-73
2021/11/26 01:21:06;;;;;;;55.40;39.67;;;3.20;99.90;;;;;;4877349;29;20465;-72
2021/11/26 01:23:35;;;;;;;51.87;38.37;;;3.10;99.90;;;;;;4877270;29;20835;-73
2021/11/26 01:26:02;;;;;;;59.00;42.67;;;3.20;99.90;;;;;;4877220;29;20453;-73
2021/11/26 01:28:29;;;;;;;62.43;40.90;;;3.10;99.90;;;;;;4877051;29;20809;-72
2021/11/26 01:30:56;;;;;;;60.00;41.00;;;3.10;99.90;;;;;;4877393;29;20511;-73
2021/11/26 01:33:23;;;;;;;55.50;40.17;;;3.20;99.90;;;;;;4877387;29;20585;-73
2021/11/26 01:35:52;;;;;;;52.40;37.47;;;3.10;99.90;;;;;;4877002;29;20468;-72
2021/11/26 01:38:19;;;;;;;51.80;37.70;;;3.10;99.90;;;;;;4876966;29;20508;-72
2021/11/26 01:40:49;;;;;;;58.43;41.00;;;3.00;99.90;;;;;;4877140;29;20511;-72
2021/11/26 01:43:20;;;;;;;60.10;41.00;;;2.90;99.90;;;;;;4877048;29;20856;-72
2021/11/26 01:45:49;;;;;;;59.87;40.10;;;3.00;99.90;;;;;;4876783;29;20476;-72
2021/11/26 01:48:16;;;;;;;55.73;38.87;;;3.10;99.90;;;;;;4877070;29;20450;-73
2021/11/26 01:50:44;;;;;;;59.23;40.97;;;3.10;99.90;;;;;;4877282;29;20462;-72
2021/11/26 01:53:11;;;;;;;58.60;40.53;;;3.10;99.90;;;;;;4877033;29;20452;-73
2021/11/26 01:55:38;;;;;;;56.40;40.00;;;3.10;99.90;;;;;;4877044;29;20959;-72
2021/11/26 01:58:10;;;;;;;62.57;41.27;;;3.10;99.90;;;;;;4876821;29;20499;-73
2021/11/26 02:00:38;;;;;;;59.37;41.70;;;3.10;99.90;;;;;;4877145;29;20461;-72
2021/11/26 02:03:05;;;;;;;60.53;39.67;;;3.10;99.90;;;;;;4876807;29;20466;-72
2021/11/26 02:05:32;;;;;;;56.97;40.53;;;3.20;99.90;;;;;;4876930;29;20468;-72
2021/11/26 02:07:59;;;;;;;58.20;39.90;;;3.20;99.90;;;;;;4876799;29;20452;-72
2021/11/26 02:10:25;;;;;;;54.10;38.77;;;3.10;99.90;;;;;;4879855;29;20458;-73
2021/11/26 02:12:53;;;;;;;54.87;38.77;;;3.20;99.90;;;;;;4880764;29;20467;-72
2021/11/26 02:15:23;;;;;;;56.23;41.00;;;3.30;99.90;;;;;;4880443;29;20473;-73
2021/11/26 02:17:51;;;;;;;57.40;40.30;;;3.30;99.90;;;;;;4880340;29;20576;-72
2021/11/26 02:20:21;;;;;;;56.73;38.73;;;3.30;99.90;;;;;;4880304;29;20460;-72
2021/11/26 02:22:48;;;;;;;56.50;40.90;;;3.30;99.90;;;;;;4880334;29;20458;-73
2021/11/26 02:25:16;;;;;;;61.57;40.43;;;3.30;99.90;;;;;;4880281;29;20462;-72
2021/11/26 02:27:43;;;;;;;49.73;38.50;;;3.30;99.90;;;;;;4880282;29;20942;-73
2021/11/26 02:30:15;;;;;;;56.13;39.47;;;3.30;99.90;;;;;;4880285;29;20464;-72
2021/11/26 02:32:43;;;;;;;56.40;39.10;;;3.30;99.90;;;;;;4880321;29;20487;-73
2021/11/26 02:35:11;;;;;;;53.23;37.67;;;3.30;99.90;;;;;;4880384;29;20452;-72
2021/11/26 02:37:40;;;;;;;56.80;39.20;;;3.40;99.90;;;;;;4880213;29;20505;-72
2021/11/26 02:40:09;;;;;;;59.00;40.23;;;3.40;99.90;;;;;;4880112;29;20467;-72
2021/11/26 02:42:37;;;;;;;54.43;39.50;;;3.40;99.90;;;;;;4880247;29;20463;-71
2021/11/26 02:45:05;;;;;;;56.00;41.30;;;3.30;99.90;;;;;;4879824;29;20458;-73
2021/11/26 02:47:32;;;;;;;50.90;38.83;;;3.20;99.90;;;;;;4880115;29;20462;-73
2021/11/26 02:49:59;;;;;;;57.87;41.30;;;3.20;99.90;;;;;;4879898;29;20471;-73
2021/11/26 02:52:25;;;;;;;58.57;40.30;;;3.20;99.90;;;;;;4880108;29;20465;-73
2021/11/26 02:54:53;;;;;;;54.57;38.13;;;3.20;99.90;;;;;;4880055;29;20452;-72
2021/11/26 02:57:20;;;;;;;55.67;41.03;;;3.10;99.90;;;;;;4879975;29;20490;-71
2021/11/26 02:59:47;;;;;;;53.60;39.40;;;3.00;99.90;;;;;;4879552;29;20816;-70
2021/11/26 03:02:14;;;;;;;57.33;39.97;;;3.00;99.90;;;;;;4879821;29;20962;-73
2021/11/26 03:04:40;;;;;;;50.43;39.77;;;3.10;99.90;;;;;;4879823;29;20460;-73
2021/11/26 03:07:09;;;;;;;56.03;40.90;;;3.10;99.90;;;;;;4879673;29;20459;-72
2021/11/26 03:09:36;;;;;;;53.87;38.90;;;3.10;99.90;;;;;;4879800;29;20461;-73
2021/11/26 03:12:05;;;;;;;58.23;40.00;;;3.00;99.90;;;;;;4879563;29;20461;-73
2021/11/26 03:14:32;;;;;;;57.33;39.53;;;3.10;99.90;;;;;;4879506;29;20496;-73
2021/11/26 03:16:59;;;;;;;65.20;41.37;;;3.10;99.90;;;;;;4879484;29;20471;-73
2021/11/26 03:19:26;;;;;;;61.13;42.17;;;3.10;99.90;;;;;;4879603;29;20832;-73
2021/11/26 03:21:53;;;;;;;56.00;39.60;;;3.10;99.90;;;;;;4878919;29;20528;-73
2021/11/26 03:24:19;;;;;;;55.10;40.13;;;3.10;99.90;;;;;;4879434;29;20464;-74
2021/11/26 03:26:46;;;;;;;54.30;37.47;;;3.10;99.90;;;;;;4879284;29;20465;-73
2021/11/26 03:29:14;;;;;;;54.57;41.17;;;3.00;99.90;;;;;;4879016;29;20448;-73
2021/11/26 03:31:41;;;;;;;54.23;41.40;;;3.00;99.90;;;;;;4879106;29;20472;-73
2021/11/26 03:34:08;;;;;;;56.17;40.33;;;3.00;99.90;;;;;;4879444;29;20454;-72
2021/11/26 03:36:35;;;;;;;62.90;43.77;;;3.10;99.90;;;;;;4879125;29;20458;-73
2021/11/26 03:39:02;;;;;;;59.50;39.23;;;3.00;99.90;;;;;;4879061;29;20495;-73
2021/11/26 03:41:28;;;;;;;56.40;42.30;;;3.00;99.90;;;;;;4878931;29;20470;-72
2021/11/26 03:43:55;;;;;;;57.40;41.97;;;3.10;99.90;;;;;;4879440;29;20467;-73
2021/11/26 03:46:24;;;;;;;54.83;38.40;;;3.10;99.90;;;;;;4879136;29;20459;-72
2021/11/26 03:48:50;;;;;;;55.20;41.83;;;3.00;99.90;;;;;;4878801;29;20953;-81
2021/11/26 03:51:17;;;;;;;56.67;41.73;;;3.00;99.90;;;;;;4878958;29;20456;-72
2021/11/26 03:53:44;;;;;;;59.17;40.30;;;2.90;99.90;;;;;;4879051;29;20852;-71
2021/11/26 03:56:11;;;;;;;64.43;43.43;;;3.00;99.90;;;;;;4879046;29;20489;-71
2021/11/26 03:58:37;;;;;;;57.77;40.90;;;3.10;99.90;;;;;;4878542;29;20508;-71
2021/11/26 04:01:04;;;;;;;58.03;40.83;;;3.00;99.90;;;;;;4879002;29;20474;-72
2021/11/26 04:03:32;;;;;;;60.27;41.53;;;3.00;99.90;;;;;;4878766;29;20466;-71
2021/11/26 04:05:59;;;;;;;62.73;42.30;;;3.10;99.90;;;;;;4878294;29;20980;-71
2021/11/26 04:08:26;;;;;;;54.43;40.70;;;3.10;99.90;;;;;;4878827;29;20450;-71
2021/11/26 04:10:53;;;;;;;59.33;40.30;;;3.20;99.90;;;;;;4878660;29;20479;-72
2021/11/26 04:13:20;;;;;;;53.80;39.47;;;3.20;99.90;;;;;;4878254;29;20462;-72
2021/11/26 04:15:46;;;;;;;58.33;41.50;;;3.20;99.90;;;;;;4878412;29;20469;-72
2021/11/26 04:18:14;;;;;;;62.60;42.03;;;3.30;99.90;;;;;;4878474;29;20522;-72
2021/11/26 04:20:43;;;;;;;56.30;41.07;;;3.30;99.90;;;;;;4878653;29;20509;-73
2021/11/26 04:23:11;;;;;;;61.37;42.93;;;3.20;99.90;;;;;;4878562;29;20473;-72
2021/11/26 04:25:37;;;;;;;55.63;39.13;;;3.20;99.90;;;;;;4878613;29;20471;-72
2021/11/26 04:28:05;;;;;;;52.70;40.53;;;3.30;99.90;;;;;;4878296;29;20444;-72
2021/11/26 04:30:33;;;;;;;60.57;44.70;;;3.30;99.90;;;;;;4878062;29;20479;-72
2021/11/26 04:33:00;;;;;;;66.03;44.33;;;3.30;99.90;;;;;;4877972;29;20490;-73
2021/11/26 04:35:27;;;;;;;63.80;44.07;;;3.30;99.90;;;;;;4878150;29;20468;-72
2021/11/26 04:37:55;;;;;;;67.40;42.33;;;3.30;99.90;;;;;;4878164;29;20502;-72
2021/11/26 04:40:22;;;;;;;67.93;44.27;;;3.40;99.90;;;;;;4878117;29;20456;-73
2021/11/26 04:42:49;;;;;;;66.83;43.90;;;3.50;99.90;;;;;;4877465;29;20947;-73
2021/11/26 04:45:17;;;;;;;60.97;44.33;;;3.50;99.90;;;;;;4877238;29;20474;-72
2021/11/26 04:47:44;;;;;;;54.47;40.37;;;3.60;99.90;;;;;;4877240;29;20449;-72
2021/11/26 04:50:12;;;;;;;59.57;42.73;;;3.60;99.90;;;;;;4877967;29;20469;-72
2021/11/26 04:52:39;;;;;;;57.47;41.77;;;3.40;99.90;;;;;;4877534;29;20944;-72
2021/11/26 04:55:10;;;;;;;66.53;43.60;;;3.20;99.90;;;;;;4877707;29;20470;-72
2021/11/26 04:57:37;;;;;;;69.47;44.20;;;3.00;99.90;;;;;;4877570;29;20966;-73
2021/11/26 05:00:05;;;;;;;57.87;42.17;;;2.90;99.90;;;;;;4877522;29;20465;-73
2021/11/26 05:02:32;;;;;;;61.70;40.67;;;2.90;99.90;;;;;;4877589;29;20466;-73
2021/11/26 05:04:58;;;;;;;69.67;43.10;;;2.80;99.90;;;;;;4877516;29;20471;-72
2021/11/26 05:07:25;;;;;;;68.50;45.10;;;2.80;99.90;;;;;;4877675;29;20827;-73
2021/11/26 05:09:52;;;;;;;70.17;42.63;;;2.70;99.90;;;;;;4877758;29;20454;-73
2021/11/26 05:12:21;;;;;;;63.60;43.40;;;2.70;99.90;;;;;;4877418;29;20496;-73
2021/11/26 05:14:47;;;;;;;58.80;43.57;;;2.80;99.90;;;;;;4877026;29;20452;-73
2021/11/26 05:17:14;;;;;;;56.30;40.13;;;2.80;99.90;;;;;;4877320;29;20982;-72
2021/11/26 05:19:41;;;;;;;59.97;40.80;;;2.70;99.90;;;;;;4877394;29;20500;-72
2021/11/26 05:22:07;;;;;;;67.43;41.63;;;2.70;99.90;;;;;;4877462;29;20459;-71
2021/11/26 05:24:34;;;;;;;59.60;40.80;;;2.60;99.90;;;;;;4877068;29;20465;-71
2021/11/26 05:27:01;;;;;;;59.50;42.57;;;2.60;99.90;;;;;;4877349;29;20836;-71
2021/11/26 05:29:29;;;;;;;67.93;45.17;;;2.60;99.90;;;;;;4877198;29;20457;-71
2021/11/26 05:31:55;;;;;;;62.70;43.90;;;2.80;99.90;;;;;;4877033;29;20495;-72
2021/11/26 05:34:22;;;;;;;65.63;42.47;;;2.90;99.90;;;;;;4877288;29;20975;-72
2021/11/26 05:36:49;;;;;;;57.87;41.10;;;3.10;99.90;;;;;;4877007;29;20459;-73
2021/11/26 05:39:16;;;;;;;68.77;44.30;;;3.20;99.90;;;;;;4876968;29;20804;-72
2021/11/26 05:41:43;;;;;;;60.43;42.60;;;3.20;99.90;;;;;;4877163;29;20466;-71
2021/11/26 05:44:10;;;;;;;59.50;40.13;;;3.10;99.90;;;;;;4876730;29;20469;-71
2021/11/26 05:46:38;;;;;;;63.23;41.90;;;3.20;99.90;;;;;;4877066;29;20463;-71
2021/11/26 05:49:05;;;;;;;59.27;42.60;;;3.20;99.90;;;;;;4877128;29;20463;-72
2021/11/26 05:51:32;;;;;;;65.57;43.57;;;3.10;99.90;;;;;;4877069;29;20466;-72
2021/11/26 05:53:58;;;;;;;58.43;39.90;;;3.10;99.90;;;;;;4876989;29;20479;-72
2021/11/26 05:56:25;;;;;;;63.40;42.37;;;3.20;99.90;;;;;;4877032;29;20470;-72
2021/11/26 05:58:52;;;;;;;67.77;43.97;;;3.40;99.90;;;;;;4877193;29;20842;-72
2021/11/26 06:01:19;;;;;;;59.37;42.33;;;3.50;99.90;;;;;;4876831;29;20877;-71
2021/11/26 06:03:47;;;;;;;66.43;42.33;;;3.50;99.90;;;;;;4876859;29;20502;-72
2021/11/26 06:06:14;;;;;;;67.27;42.00;;;3.50;99.90;;;;;;4876432;29;20461;-72
2021/11/26 06:08:41;;;;;;;58.40;39.33;;;3.50;99.90;;;;;;4877084;29;20812;-73
2021/11/26 06:11:07;;;;;;;63.70;43.60;;;3.60;99.90;;;;;;4876940;29;20451;-72
2021/11/26 06:13:34;;;;;;;61.87;42.30;;;3.40;99.90;;;;;;4876775;29;20482;-73
2021/11/26 06:16:01;;;;;;;59.40;41.53;;;3.30;99.90;;;;;;4876616;29;20461;-72
2021/11/26 06:18:27;;;;;;;60.17;39.87;;;3.30;99.90;;;;;;4876812;29;20494;-73
2021/11/26 06:20:56;;;;;;;63.23;40.90;;;3.30;99.90;;;;;;4877156;29;20592;-73
2021/11/26 06:23:23;;;;;;;60.07;40.87;;;3.30;99.90;;;;;;4876945;29;20463;-73
2021/11/26 06:25:49;;;;;;;59.83;40.50;;;3.20;99.90;;;;;;4876973;29;20487;-73
2021/11/26 06:28:16;;;;;;;66.57;43.00;;;3.30;99.90;;;;;;4876467;29;20528;-73
2021/11/26 06:30:43;;;;;;;63.67;44.67;;;3.40;99.90;;;;;;4876264;29;20490;-72
2021/11/26 06:33:10;;;;;;;62.20;43.50;;;3.50;99.90;;;;;;4876606;29;20499;-72
2021/11/26 06:35:36;;;;;;;64.77;40.40;;;3.50;99.90;;;;;;4876783;29;20467;-72
2021/11/26 06:38:05;;;;;;;57.40;39.50;;;3.60;99.90;;;;;;4876481;29;20979;-72
2021/11/26 06:40:32;;;;;;;54.40;38.77;;;3.60;99.90;;;;;;4876555;29;20722;-73
2021/11/26 06:42:58;;;;;;;64.43;43.80;;;3.60;99.90;;;;;;4876460;29;20470;-73
2021/11/26 06:45:25;;;;;;;67.67;43.70;;;3.60;99.90;;;;;;4876751;29;20456;-72
2021/11/26 06:47:52;;;;;;;65.60;44.33;;;3.50;99.90;;;;;;4876624;29;20816;-73
2021/11/26 06:50:19;;;;;;;56.40;40.47;;;3.50;99.90;;;;;;4876727;29;20878;-74
2021/11/26 06:52:46;;;;;;;56.00;42.67;;;3.50;99.90;;;;;;4876439;29;20962;-73
2021/11/26 06:55:14;;;;;;;56.40;40.00;;;3.50;99.90;;;;;;4876105;29;20460;-72
2021/11/26 06:57:41;;;;;;;59.70;41.70;;;3.60;99.90;;;;;;4879779;29;20812;-72
2021/11/26 07:00:11;;;;;;;64.67;42.73;;;3.60;99.90;;;;;;4879932;29;20497;-73
2021/11/26 07:02:38;;;;;;;64.23;44.43;;;3.60;99.90;;;;;;4879774;29;20467;-73
2021/11/26 07:05:05;;;;;;;75.43;46.00;;;3.50;99.90;;;;;;4879634;29;20464;-72
2021/11/26 07:07:32;;;;;;;65.43;45.10;;;3.50;99.90;;;;;;4879801;29;20460;-75
2021/11/26 07:09:59;;;;;;;65.83;42.27;;;3.40;99.90;;;;;;4879388;29;20464;-76
2021/11/26 07:12:27;;;;;;;56.37;40.00;;;3.50;99.90;;;;;;4879449;29;20470;-73
2021/11/26 07:14:54;;;;;;;65.90;42.30;;;3.50;99.90;;;;;;4879429;29;20829;-73
2021/11/26 07:17:21;;;;;;;59.27;40.23;;;3.40;99.90;;;;;;4872078;29;20482;-72
2021/11/26 07:19:49;;;;;;;57.20;41.90;;;3.40;99.90;;;;;;4862522;29;20493;-72
2021/11/26 07:22:16;;;;;;;67.50;43.20;;;3.40;99.90;;;;;;4879032;29;20988;-73
2021/11/26 07:24:43;;;;;;;60.00;38.77;;;3.30;99.90;;;;;;4870081;29;20482;-73
2021/11/26 07:27:10;;;;;;;63.20;39.13;;;3.20;99.90;;;;;;4874026;29;20481;-73
2021/11/26 07:29:39;;;;;;;65.10;42.07;;;3.20;99.90;;;;;;4879123;29;20458;-73
2021/11/26 07:32:07;;;;;;;59.70;40.37;;;3.20;99.90;;;;;;4878848;29;20521;-73
2021/11/26 07:34:34;;;;;;;60.33;40.17;;;3.10;99.90;;;;;;4862150;29;20458;-73
2021/11/26 07:37:01;;;;;;;65.90;42.47;;;3.10;99.90;;;;;;4878086;29;20470;-73
2021/11/26 07:39:33;;;;;;;58.70;39.77;;;3.20;99.90;;;;;;4878727;29;21030;-73
2021/11/26 07:42:00;;;;;;;57.50;39.40;;;3.20;99.90;;;;;;4878826;29;20460;-73
2021/11/26 07:44:26;;;;;;;59.67;38.70;;;3.20;99.90;;;;;;4878813;29;20824;-73
2021/11/26 07:46:54;;;;;;;64.50;41.53;;;3.30;99.90;;;;;;4878344;29;20474;-73
2021/11/26 07:49:24;;;;;;;58.37;42.17;;;3.30;99.90;;;;;;4877872;29;20465;-73
2021/11/26 07:51:50;;;;;;;55.70;39.93;;;3.30;99.90;;;;;;4860261;29;20556;-72
2021/11/26 07:54:17;;;;;;;49.13;38.53;;;3.40;99.90;;;;;;4860007;29;20874;-73
2021/11/26 07:56:44;;;;;;;56.50;37.83;;;3.40;99.90;;;;;;4859913;29;20453;-72
2021/11/26 07:59:10;;;;;;;59.07;42.17;;;3.40;99.90;;;;;;4859795;29;20520;-73
2021/11/26 08:01:37;;;;;;;62.80;41.17;;;3.40;99.90;;;;;;4859991;29;20952;-72
2021/11/26 08:04:05;;;;;;;59.40;40.40;;;3.30;99.90;;;;;;4859579;29;20846;-72
2021/11/26 08:06:32;;;;;;;61.13;40.57;;;3.30;99.90;;;;;;4859377;29;20554;-73
2021/11/26 08:08:59;;;;;;;56.30;37.90;;;3.40;99.90;;;;;;4859756;29;20462;-73
2021/11/26 08:11:26;;;;;;;53.37;37.40;;;3.40;99.90;;;;;;4860000;29;20464;-73
2021/11/26 08:13:52;;;;;;;55.63;37.70;;;3.50;99.90;;;;;;4859693;29;20463;-72
2021/11/26 08:16:19;;;;;;;57.50;38.27;;;3.60;99.90;;;;;;4859601;29;20464;-73
2021/11/26 08:18:46;;;;;;;60.20;40.03;;;3.50;99.90;;;;;;4859486;29;20495;-73
2021/11/26 08:21:14;;;;;;;55.70;38.37;;;3.50;99.90;;;;;;4859502;29;20461;-73
2021/11/26 08:23:41;;;;;;;58.27;40.70;;;3.40;99.90;;;;;;4859656;29;20872;-73
2021/11/26 08:26:07;;;;;;;52.93;39.80;;;3.50;99.90;;;;;;4859472;29;20466;-72
2021/11/26 08:28:34;;;;;;;60.40;40.47;;;3.50;99.90;;;;;;4859224;29;20457;-73
2021/11/26 08:31:01;;;;;;;57.70;38.47;;;3.40;99.90;;;;;;4858980;29;20490;-73
2021/11/26 08:33:28;;;;;;;59.53;40.80;;;3.40;99.90;;;;;;4859071;29;20490;-73
2021/11/26 08:35:56;;;;;;;62.60;39.13;;;3.50;99.90;;;;;;4859167;29;20499;-73
2021/11/26 08:38:25;;;;;;;62.00;42.20;;;3.50;99.90;;;;;;4858431;29;20477;-73
2021/11/26 08:40:52;;;;;;;63.93;39.97;;;3.40;99.90;;;;;;4858066;29;20508;-74
2021/11/26 08:43:19;;;;;;;57.13;41.07;;;3.40;99.90;;;;;;4858584;29;20943;-72
2021/11/26 08:45:46;;;;;;;57.33;39.83;;;3.40;99.90;;;;;;4856650;29;20533;-72
2021/11/26 13:36:00;;;;;;;43.00;31.40;;;5.60;99.90;;;;;;5956390;23;20435;31
2021/11/26 13:38:31;;;;;;;37.13;29.83;;;5.80;99.90;;;;;;4898640;29;20519;-74
2021/11/26 13:41:00;;;;;;;37.57;31.17;;;5.90;99.90;;;;;;4911404;29;20680;-73
2021/11/26 13:43:29;;;;;;;37.97;29.13;;;5.80;99.90;;;;;;4913671;29;20459;-73
2021/11/26 13:46:05;;;;;;;38.80;30.17;;;5.60;99.90;;;;;;4899681;29;20574;-73
2021/11/26 13:48:34;;;;;;;38.23;29.13;;;5.50;99.90;;;;;;4895157;29;20462;-73
2021/11/26 13:51:03;;;;;;;40.33;30.50;;;5.50;99.90;;;;;;4895171;29;20485;-73
2021/11/26 13:53:31;;;;;;;38.47;28.57;;;5.50;99.90;;;;;;4896538;29;20507;-73
2021/11/26 13:55:58;;;;;;;31.67;28.10;;;5.70;99.90;;;;;;4913502;29;20882;-72
2021/11/26 13:58:25;;;;;;;36.20;29.77;;;5.60;99.90;;;;;;4913565;29;20455;-73
2021/11/26 14:00:54;;;;;;;34.37;28.63;;;5.80;99.90;;;;;;4913635;29;21030;-73
2021/11/26 14:03:29;;;;;;;35.03;27.43;;;5.90;99.90;;;;;;4913798;29;20905;-72
2021/11/26 14:06:07;;;;;;;28.93;25.97;;;6.00;99.90;;;;;;4915742;29;20468;-72
2021/11/26 14:08:45;;;;;;;29.40;26.27;;;5.90;99.90;;;;;;4917583;29;20462;-72
2021/11/26 14:11:12;;;;;;;28.73;23.97;;;5.90;99.90;;;;;;4916979;29;20473;-73
2021/11/26 14:13:49;;;;;;;27.50;24.47;;;6.00;99.90;;;;;;4917236;29;20457;-73
2021/11/26 14:16:16;;;;;;;27.53;24.77;;;6.00;99.90;;;;;;4917251;29;20949;-72
2021/11/26 14:18:50;;;;;;;30.97;27.63;;;6.00;99.90;;;;;;4917085;29;20464;-73
2021/11/26 14:21:17;;;;;;;30.43;24.87;;;6.00;99.90;;;;;;4917087;29;20498;-73
2021/11/26 14:23:54;;;;;;;32.40;27.10;;;5.90;99.90;;;;;;4917206;29;20493;-73
2021/11/26 14:26:22;;;;;;;29.17;25.70;;;5.90;99.90;;;;;;4916955;29;20466;-73
2021/11/26 14:28:49;;;;;;;27.33;24.40;;;5.80;99.90;;;;;;4900015;29;20471;-72
2021/11/26 14:31:16;;;;;;;26.40;23.60;;;5.70;99.90;;;;;;4898099;29;20453;-73
2021/11/26 14:33:43;;;;;;;28.10;25.20;;;5.60;99.90;;;;;;4897842;29;21038;-73
2021/11/26 14:36:12;;;;;;;25.50;22.90;;;5.70;99.90;;;;;;4897580;29;20477;-72
2021/11/26 14:38:47;;;;;;;24.93;22.00;;;5.80;99.90;;;;;;4897836;29;20458;-73
2021/11/26 14:41:19;;;;;;;30.97;23.80;;;5.70;99.90;;;;;;4896565;29;20490;-72
2021/11/26 14:43:47;;;;;;;26.27;22.67;;;5.70;99.90;;;;;;4897811;29;20870;-73
2021/11/26 14:46:16;;;;;;;25.27;22.87;;;5.80;99.90;;;;;;4897606;29;20443;-72
2021/11/26 14:48:49;;;;;;;27.03;24.10;;;5.80;99.90;;;;;;4897665;29;20555;-73
2021/11/26 14:51:23;;;;;;;25.40;22.90;;;5.80;99.90;;;;;;4897973;29;20486;-73
2021/11/26 14:53:51;;;;;;;23.83;21.77;;;5.70;99.90;;;;;;4897969;29;20519;-73
2021/11/26 14:56:21;;;;;;;22.00;19.97;;;5.70;99.90;;;;;;4897781;29;20469;-73
2021/11/26 14:58:48;;;;;;;22.73;20.50;;;5.80;99.90;;;;;;4896971;29;20474;-73
2021/11/26 15:01:19;;;;;;;22.50;20.50;;;5.70;99.90;;;;;;4897594;29;21089;-72
2021/11/26 15:03:46;;;;;;;23.37;21.13;;;5.60;99.90;;;;;;4897673;29;20462;-72
2021/11/26 15:06:12;;;;;;;22.20;19.90;;;5.60;99.90;;;;;;4897749;29;20463;-72
2021/11/26 15:08:39;;;;;;;20.90;19.00;;;5.70;99.90;;;;;;4897522;29;20466;-72
2021/11/26 15:11:07;;;;;;;19.57;17.63;;;5.70;99.90;;;;;;4897486;29;21031;-72
2021/11/26 15:13:36;;;;;;;18.53;16.83;;;5.70;99.90;;;;;;4897514;29;20465;-73
2021/11/26 15:16:02;;;;;;;23.37;20.93;;;5.70;99.90;;;;;;4896903;29;20458;-72
2021/11/26 15:18:29;;;;;;;19.80;17.97;;;5.80;99.90;;;;;;4896710;29;20919;-73
2021/11/26 15:20:56;;;;;;;21.57;19.43;;;5.70;99.90;;;;;;4897385;29;20494;-73
2021/11/26 15:23:23;;;;;;;19.67;17.90;;;5.80;99.90;;;;;;4897303;29;20469;-72
2021/11/26 15:25:50;;;;;;;19.90;18.27;;;5.80;99.90;;;;;;4897571;29;20517;-72
2021/11/26 15:28:17;;;;;;;19.67;17.90;;;5.80;99.90;;;;;;4897145;29;20971;-72
2021/11/26 15:30:45;;;;;;;19.67;17.63;;;5.70;99.90;;;;;;4896855;29;20484;-72
2021/11/26 15:33:12;;;;;;;18.70;17.10;;;5.70;99.90;;;;;;4897258;29;20497;-72
2021/11/26 15:35:39;;;;;;;19.23;17.67;;;5.70;99.90;;;;;;4896979;29;20492;-71
2021/11/26 15:38:06;;;;;;;19.03;17.53;;;5.60;99.90;;;;;;4897231;29;20999;-72
2021/11/26 15:40:32;;;;;;;17.73;16.30;;;5.70;99.90;;;;;;4896962;29;20494;-72
2021/11/26 15:42:59;;;;;;;18.20;16.70;;;5.60;99.90;;;;;;4897066;29;20516;-71
2021/11/26 15:45:26;;;;;;;18.60;17.00;;;5.70;99.90;;;;;;4896742;29;20457;-72
2021/11/26 15:47:54;;;;;;;18.10;16.30;;;5.70;99.90;;;;;;4897019;29;20477;-71
2021/11/26 15:50:24;;;;;;;16.43;15.13;;;5.50;99.90;;;;;;4896869;29;20511;-72
2021/11/26 15:52:51;;;;;;;18.73;17.13;;;5.50;99.90;;;;;;4896807;29;20946;-72
2021/11/26 15:55:18;;;;;;;18.07;16.63;;;5.40;99.90;;;;;;4896897;29;20452;-71
2021/11/26 15:57:45;;;;;;;16.57;15.17;;;5.30;99.90;;;;;;4896633;29;20459;-73
2021/11/26 16:00:14;;;;;;;20.80;18.67;;;5.20;99.90;;;;;;4896508;29;20494;-72
2021/11/26 16:02:41;;;;;;;16.60;15.27;;;5.20;99.90;;;;;;4896682;29;20459;-72
2021/11/26 16:05:10;;;;;;;17.40;14.93;;;5.20;99.90;;;;;;4896756;29;20452;-72
2021/11/26 16:07:37;;;;;;;18.73;16.93;;;5.10;99.90;;;;;;4896435;29;20468;-71
2021/11/26 16:10:06;;;;;;;19.53;17.73;;;5.10;99.90;;;;;;4896680;29;20455;-70
2021/11/26 16:12:34;;;;;;;16.73;15.10;;;5.10;99.90;;;;;;4896134;29;21096;-71
2021/11/26 16:15:01;;;;;;;17.53;16.13;;;5.00;99.90;;;;;;4896420;29;20463;-73
2021/11/26 16:17:27;;;;;;;16.60;15.40;;;5.10;99.90;;;;;;4896094;29;20455;-72
2021/11/26 16:19:54;;;;;;;18.07;16.47;;;5.10;99.90;;;;;;4896320;29;20507;-73
2021/11/26 16:22:25;;;;;;;15.63;14.33;;;5.20;99.90;;;;;;4896073;29;20563;-72
2021/11/26 16:24:51;;;;;;;16.13;14.93;;;5.10;99.90;;;;;;4896290;29;20467;-72
2021/11/26 16:27:18;;;;;;;15.10;13.90;;;5.10;99.90;;;;;;4896033;29;20782;-72
2021/11/26 16:29:46;;;;;;;17.40;15.80;;;5.10;99.90;;;;;;4896111;29;20529;-71
2021/11/26 16:32:18;;;;;;;17.47;15.97;;;5.00;99.90;;;;;;4896160;29;20462;-72
2021/11/26 16:34:47;;;;;;;16.90;15.50;;;5.10;99.90;;;;;;4896040;29;20559;-72
2021/11/26 16:37:17;;;;;;;15.33;14.10;;;5.10;99.90;;;;;;4895697;29;20491;-71
2021/11/26 16:39:46;;;;;;;16.17;14.87;;;5.10;99.90;;;;;;4895745;29;20463;-72
2021/11/26 16:42:13;;;;;;;16.63;15.23;;;5.10;99.90;;;;;;4895951;29;20901;-72
2021/11/26 16:44:41;;;;;;;16.30;14.90;;;5.10;99.90;;;;;;4895865;29;20457;-72
2021/11/26 16:47:12;;;;;;;16.53;15.13;;;5.10;99.90;;;;;;4895928;29;20463;-71
2021/11/26 16:49:39;;;;;;;16.43;15.03;;;5.10;99.90;;;;;;4895700;29;20470;-72
2021/11/26 16:52:08;;;;;;;15.23;13.93;;;5.10;99.90;;;;;;4895893;29;20467;-72
2021/11/26 16:54:38;;;;;;;16.77;15.37;;;5.10;99.90;;;;;;4895668;29;20546;-72
2021/11/26 16:57:08;;;;;;;15.77;14.67;;;5.00;99.90;;;;;;4895909;29;20498;-71
2021/11/26 16:59:34;;;;;;;17.23;15.93;;;5.00;99.90;;;;;;4895691;29;20464;-71
2021/11/26 17:02:01;;;;;;;14.73;13.70;;;5.00;99.90;;;;;;4895530;29;20496;-71
2021/11/26 17:04:28;;;;;;;15.70;14.30;;;5.10;99.90;;;;;;4895365;29;20574;-71
2021/11/26 17:06:55;;;;;;;16.07;14.80;;;5.10;99.90;;;;;;4892492;29;20458;-72
2021/11/26 17:09:22;;;;;;;17.07;15.57;;;5.10;99.90;;;;;;4895809;29;20950;-71
2021/11/26 17:11:49;;;;;;;16.63;15.33;;;5.10;99.90;;;;;;4896168;29;20511;-71
2021/11/26 17:14:17;;;;;;;19.17;15.50;;;5.00;99.90;;;;;;4895901;29;20466;-71
2021/11/26 17:16:44;;;;;;;15.90;14.60;;;5.10;99.90;;;;;;4895844;29;20467;-71
2021/11/26 17:19:11;;;;;;;16.60;15.20;;;5.10;99.90;;;;;;4895610;29;20985;-72
2021/11/26 17:21:38;;;;;;;16.50;14.87;;;5.10;99.90;;;;;;4895358;29;20507;-72
2021/11/26 17:24:06;;;;;;;15.63;14.33;;;5.00;99.90;;;;;;4895944;29;20867;-72